Time;durP1;ratioP1;P1;durP2;ratioP2;P2;SDS_P1;SDS_P2;PMS_P1;PMS_P2;Temp;Humidity;BMP_temperature;BMP_pressure;BME280_temperature;BME280_humidity;BME280_pressure;Samples;Min_cycle;Max_cycle;Signal;HPM_P1;HPM_P2
2023/05/25 00:01:29;;;;;;;19.65;14.48;;;;;;;;;;4906349;29;20054;-62
2023/05/25 00:05:09;;;;;;;21.70;15.73;;;;;;;;;;4905967;29;20048;-63
2023/05/25 00:08:50;;;;;;;25.98;15.70;;;;;;;;;;4905267;29;20052;-63
2023/05/25 00:12:29;;;;;;;21.77;14.95;;;;;;;;;;4905256;29;20055;-63
2023/05/25 00:16:09;;;;;;;19.45;14.90;;;;;;;;;;4907435;29;20083;-63
2023/05/25 00:19:50;;;;;;;20.50;14.45;;;;;;;;;;4911319;29;20135;-62
2023/05/25 00:23:30;;;;;;;20.52;14.52;;;;;;;;;;4910227;29;20060;-63
2023/05/25 00:27:11;;;;;;;20.23;14.63;;;;;;;;;;4912184;29;20056;-64
2023/05/25 00:30:51;;;;;;;21.67;14.85;;;;;;;;;;4911070;29;20187;-67
2023/05/25 00:34:31;;;;;;;20.00;14.95;;;;;;;;;;4908869;29;20056;-63
2023/05/25 00:38:12;;;;;;;26.67;14.48;;;;;;;;;;4907211;29;20528;-65
2023/05/25 00:41:52;;;;;;;24.95;16.13;;;;;;;;;;4909186;29;20056;-63
2023/05/25 00:45:32;;;;;;;26.25;15.55;;;;;;;;;;4912720;29;20060;-63
2023/05/25 00:49:15;;;;;;;24.38;14.63;;;;;;;;;;4908505;29;20044;-63
2023/05/25 00:52:54;;;;;;;20.25;14.93;;;;;;;;;;4908136;29;20047;-63
2023/05/25 00:56:44;;;;;;;22.00;15.02;;;;;;;;;;4911416;29;20557;-62
2023/05/25 01:00:25;;;;;;;23.00;14.10;;;;;;;;;;4911748;29;20044;-63
2023/05/25 01:04:06;;;;;;;21.25;14.63;;;;;;;;;;4909133;29;20475;-62
2023/05/25 01:07:45;;;;;;;22.30;14.65;;;;;;;;;;4912121;29;20048;-63
2023/05/25 01:11:26;;;;;;;19.35;13.55;;;;;;;;;;4910965;29;20409;-64
2023/05/25 01:15:06;;;;;;;21.10;15.30;;;;;;;;;;4905938;29;20284;-63
2023/05/25 01:18:46;;;;;;;22.88;14.77;;;;;;;;;;4908447;29;20492;-63
2023/05/25 01:22:10;;;;;;;21.45;13.90;;;;;;;;;;4908887;29;20056;-63
2023/05/25 01:26:02;;;;;;;23.08;13.73;;;;;;;;;;4911751;29;20632;-64
2023/05/25 01:29:43;;;;;;;24.10;14.75;;;;;;;;;;4907485;29;20098;-64
2023/05/25 01:33:25;;;;;;;23.85;14.32;;;;;;;;;;4907580;29;20055;-62
2023/05/25 01:37:04;;;;;;;17.85;13.95;;;;;;;;;;4912117;29;20055;-62
2023/05/25 01:40:45;;;;;;;18.90;13.85;;;;;;;;;;4907319;29;20712;-64
2023/05/25 01:44:25;;;;;;;24.00;13.85;;;;;;;;;;4908663;29;20044;-62
2023/05/25 01:48:12;;;;;;;22.73;12.82;;;;;;;;;;4908421;29;20112;-62
2023/05/25 01:51:58;;;;;;;19.55;12.43;;;;;;;;;;4908890;29;20444;-63
2023/05/25 01:55:39;;;;;;;16.17;12.43;;;;;;;;;;4912785;29;20083;-63
2023/05/25 01:59:22;;;;;;;15.73;12.18;;;;;;;;;;4907026;29;20043;-63
2023/05/25 02:03:02;;;;;;;15.82;11.77;;;;;;;;;;4906853;29;20417;-62
2023/05/25 02:06:42;;;;;;;17.23;11.65;;;;;;;;;;4908327;29;20040;-62
2023/05/25 02:10:23;;;;;;;15.55;11.07;;;;;;;;;;4905497;29;20052;-62
2023/05/25 02:14:05;;;;;;;15.32;10.80;;;;;;;;;;4906480;29;20043;-62
2023/05/25 02:17:45;;;;;;;18.42;11.93;;;;;;;;;;4911410;29;20048;-62
2023/05/25 02:21:27;;;;;;;21.63;11.68;;;;;;;;;;4910251;29;20055;-61
2023/05/25 02:25:07;;;;;;;17.15;12.40;;;;;;;;;;4908088;29;20051;-64
2023/05/25 02:28:46;;;;;;;16.48;11.93;;;;;;;;;;4904688;29;20040;-62
2023/05/25 02:32:28;;;;;;;16.55;11.23;;;;;;;;;;4908544;29;20523;-68
2023/05/25 02:36:07;;;;;;;16.70;11.45;;;;;;;;;;4907927;29;20044;-63
2023/05/25 02:39:48;;;;;;;16.63;11.85;;;;;;;;;;4908286;29;20055;-63
2023/05/25 02:43:27;;;;;;;15.20;10.88;;;;;;;;;;4905941;29;20056;-63
2023/05/25 02:47:08;;;;;;;15.73;10.95;;;;;;;;;;4901859;29;20071;-62
2023/05/25 02:50:48;;;;;;;14.98;10.00;;;;;;;;;;4910925;29;20497;-63
2023/05/25 02:54:29;;;;;;;19.13;10.57;;;;;;;;;;4906663;29;20417;-62
2023/05/25 02:58:09;;;;;;;18.05;9.93;;;;;;;;;;4909349;29;20090;-62
2023/05/25 03:01:50;;;;;;;15.45;9.70;;;;;;;;;;4908654;29;20056;-62
2023/05/25 03:05:34;;;;;;;14.30;9.30;;;;;;;;;;4902043;29;20497;-62
2023/05/25 03:09:10;;;;;;;14.13;9.55;;;;;;;;;;4907487;29;20056;-63
2023/05/25 03:12:50;;;;;;;15.45;9.07;;;;;;;;;;4912693;29;20767;-63
2023/05/25 03:16:35;;;;;;;14.38;8.52;;;;;;;;;;4910499;29;20137;-63
2023/05/25 03:20:14;;;;;;;13.45;7.20;;;;;;;;;;4905267;29;20051;-63
2023/05/25 03:23:52;;;;;;;12.63;7.47;;;;;;;;;;4900234;29;20410;-63
2023/05/25 03:27:33;;;;;;;13.23;7.72;;;;;;;;;;4907035;29;20493;-62
2023/05/25 03:31:13;;;;;;;10.25;6.47;;;;;;;;;;4910688;29;20048;-61
2023/05/25 03:34:53;;;;;;;10.88;6.47;;;;;;;;;;4909368;29;20523;-65
2023/05/25 03:38:34;;;;;;;12.55;6.80;;;;;;;;;;4909063;29;20045;-62
2023/05/25 03:42:14;;;;;;;12.48;6.57;;;;;;;;;;4909623;29;20070;-62
2023/05/25 03:45:54;;;;;;;13.63;6.28;;;;;;;;;;4914842;29;20788;-63
2023/05/25 03:49:35;;;;;;;11.20;6.38;;;;;;;;;;4913407;29;20047;-62
2023/05/25 03:53:16;;;;;;;11.50;6.22;;;;;;;;;;4907282;29;20063;-62
2023/05/25 03:56:57;;;;;;;11.00;6.47;;;;;;;;;;4907575;29;20466;-63
2023/05/25 04:00:36;;;;;;;7.85;5.32;;;;;;;;;;4909394;29;20177;-62
2023/05/25 04:04:16;;;;;;;10.52;6.00;;;;;;;;;;4911943;29;20048;-62
2023/05/25 04:08:01;;;;;;;9.65;5.00;;;;;;;;;;4904783;29;20103;-64
2023/05/25 04:11:40;;;;;;;12.30;5.30;;;;;;;;;;4912657;29;20107;-63
2023/05/25 04:15:22;;;;;;;8.27;5.45;;;;;;;;;;4913211;28;20050;-64
2023/05/25 04:19:02;;;;;;;11.40;5.70;;;;;;;;;;4906556;29;20504;-62
2023/05/25 04:22:44;;;;;;;9.45;5.15;;;;;;;;;;4908819;29;20066;-62
2023/05/25 04:26:27;;;;;;;9.07;5.25;;;;;;;;;;4912614;29;20052;-61
2023/05/25 04:30:07;;;;;;;11.10;5.60;;;;;;;;;;4905294;29;20060;-62
2023/05/25 04:33:48;;;;;;;10.52;5.68;;;;;;;;;;4908738;29;20087;-62
2023/05/25 04:37:29;;;;;;;12.15;5.55;;;;;;;;;;4910300;29;20143;-64
2023/05/25 04:41:10;;;;;;;9.52;4.97;;;;;;;;;;4913732;29;20129;-63
2023/05/25 04:44:57;;;;;;;9.15;5.75;;;;;;;;;;4909136;29;20052;-62
2023/05/25 04:48:37;;;;;;;7.07;5.20;;;;;;;;;;4904868;29;20123;-61
2023/05/25 04:52:17;;;;;;;9.02;5.38;;;;;;;;;;4906095;29;20489;-63
2023/05/25 04:55:57;;;;;;;7.13;5.13;;;;;;;;;;4910479;29;20095;-64
2023/05/25 04:59:37;;;;;;;13.43;5.40;;;;;;;;;;4911321;29;20080;-66
2023/05/25 05:03:18;;;;;;;11.95;5.15;;;;;;;;;;4907529;29;20047;-62
2023/05/25 05:06:58;;;;;;;11.07;5.95;;;;;;;;;;4910328;29;20083;-63
2023/05/25 05:10:38;;;;;;;15.07;5.72;;;;;;;;;;4904675;29;20520;-62
2023/05/25 05:14:19;;;;;;;13.18;5.90;;;;;;;;;;4900609;29;20044;-62
2023/05/25 05:17:59;;;;;;;14.48;6.90;;;;;;;;;;4907827;29;20032;-63
2023/05/25 05:21:39;;;;;;;13.88;7.40;;;;;;;;;;4902530;29;20154;-63
2023/05/25 05:25:20;;;;;;;12.82;7.50;;;;;;;;;;4898604;29;20203;-63
2023/05/25 05:29:00;;;;;;;20.77;8.48;;;;;;;;;;4904965;29;20118;-63
2023/05/25 05:32:40;;;;;;;19.83;8.38;;;;;;;;;;4903067;29;20445;-63
2023/05/25 05:36:21;;;;;;;21.80;8.18;;;;;;;;;;4910603;29;20041;-68
2023/05/25 05:40:03;;;;;;;13.23;7.85;;;;;;;;;;4903243;29;20457;-68
2023/05/25 05:43:45;;;;;;;18.98;8.15;;;;;;;;;;4909133;29;20567;-66
2023/05/25 05:47:24;;;;;;;18.27;7.80;;;;;;;;;;4907484;29;20059;-66
2023/05/25 05:51:05;;;;;;;23.60;8.77;;;;;;;;;;4906878;29;20146;-66
2023/05/25 05:54:45;;;;;;;13.65;8.27;;;;;;;;;;4904850;29;20435;-63
2023/05/25 05:58:25;;;;;;;18.55;8.52;;;;;;;;;;4904524;29;20044;-66
2023/05/25 06:02:06;;;;;;;15.95;8.80;;;;;;;;;;4913777;29;20504;-67
2023/05/25 06:05:46;;;;;;;17.23;8.02;;;;;;;;;;4911328;29;20052;-66
2023/05/25 06:09:26;;;;;;;18.58;7.82;;;;;;;;;;4906592;29;20044;-66
2023/05/25 06:13:07;;;;;;;11.82;7.80;;;;;;;;;;4911559;29;20178;-64
2023/05/25 06:16:47;;;;;;;22.13;8.98;;;;;;;;;;4908534;29;20052;-67
2023/05/25 06:20:27;;;;;;;16.63;8.60;;;;;;;;;;4910190;29;20056;-64
2023/05/25 06:24:08;;;;;;;16.00;8.95;;;;;;;;;;4909938;29;20802;-64
2023/05/25 06:27:50;;;;;;;18.95;10.77;;;;;;;;;;4906054;29;20044;-63
2023/05/25 06:31:30;;;;;;;22.60;9.90;;;;;;;;;;4905232;29;20135;-62
2023/05/25 06:35:18;;;;;;;18.30;10.23;;;;;;;;;;4906868;29;20050;-63
2023/05/25 06:38:51;;;;;;;17.10;9.75;;;;;;;;;;4906465;29;20049;-63
2023/05/25 06:42:31;;;;;;;21.40;10.38;;;;;;;;;;4901052;29;20063;-65
2023/05/25 06:46:16;;;;;;;22.75;11.00;;;;;;;;;;4899065;29;20078;-68
2023/05/25 06:49:53;;;;;;;27.77;10.68;;;;;;;;;;4904013;29;20068;-65
2023/05/25 06:53:33;;;;;;;17.95;10.43;;;;;;;;;;4906854;29;20067;-64
2023/05/25 06:57:14;;;;;;;22.52;11.05;;;;;;;;;;4907278;29;20044;-65
2023/05/25 07:00:55;;;;;;;25.77;11.82;;;;;;;;;;4908210;29;20060;-62
2023/05/25 07:04:36;;;;;;;23.50;11.93;;;;;;;;;;4901374;29;20063;-62
2023/05/25 07:08:16;;;;;;;27.70;10.63;;;;;;;;;;4907023;29;20119;-63
2023/05/25 07:11:56;;;;;;;21.27;11.35;;;;;;;;;;4907866;29;20111;-62
2023/05/25 07:15:36;;;;;;;21.63;10.23;;;;;;;;;;4907278;29;20493;-62
2023/05/25 07:19:20;;;;;;;20.55;10.00;;;;;;;;;;4905182;29;20047;-60
2023/05/25 07:23:01;;;;;;;18.08;8.85;;;;;;;;;;4909220;29;20441;-62
2023/05/25 07:26:44;;;;;;;18.48;9.30;;;;;;;;;;4896619;29;20552;-63
2023/05/25 07:30:24;;;;;;;14.32;8.60;;;;;;;;;;4908196;29;20116;-62
2023/05/25 07:34:04;;;;;;;20.83;9.75;;;;;;;;;;4906006;29;20048;-64
2023/05/25 07:37:44;;;;;;;21.40;10.35;;;;;;;;;;4907971;29;20423;-63
2023/05/25 07:41:25;;;;;;;24.05;10.07;;;;;;;;;;4905265;29;20051;-62
2023/05/25 07:45:06;;;;;;;19.83;9.18;;;;;;;;;;4909687;29;20404;-64
2023/05/25 07:48:46;;;;;;;21.45;8.80;;;;;;;;;;4910083;29;20032;-63
2023/05/25 07:52:27;;;;;;;19.10;8.32;;;;;;;;;;4909846;29;20511;-62
2023/05/25 07:56:07;;;;;;;16.92;8.23;;;;;;;;;;4912280;29;20056;-62
2023/05/25 07:59:48;;;;;;;16.60;8.35;;;;;;;;;;4910122;29;20142;-65
2023/05/25 08:03:28;;;;;;;24.50;8.70;;;;;;;;;;4906912;29;20495;-63
2023/05/25 08:07:10;;;;;;;15.20;8.20;;;;;;;;;;4910909;29;20048;-65
2023/05/25 08:10:50;;;;;;;20.65;9.20;;;;;;;;;;4902506;29;20047;-64
2023/05/25 08:14:30;;;;;;;18.42;8.07;;;;;;;;;;4909692;29;20464;-63
2023/05/25 08:18:11;;;;;;;18.98;8.95;;;;;;;;;;4912906;29;20059;-63
2023/05/25 08:21:53;;;;;;;18.60;9.23;;;;;;;;;;4911023;29;20295;-64
2023/05/25 08:25:34;;;;;;;18.75;9.55;;;;;;;;;;4912542;29;20060;-64
2023/05/25 08:29:14;;;;;;;19.30;9.27;;;;;;;;;;4910984;29;20406;-65
2023/05/25 08:32:54;;;;;;;20.20;9.55;;;;;;;;;;4908166;29;20155;-62
2023/05/25 08:36:35;;;;;;;19.30;10.55;;;;;;;;;;4911218;29;20501;-72
2023/05/25 08:40:15;;;;;;;22.00;9.77;;;;;;;;;;4905147;29;20048;-64
2023/05/25 08:43:55;;;;;;;16.52;10.63;;;;;;;;;;4907614;29;20532;-64
2023/05/25 08:47:35;;;;;;;18.45;10.52;;;;;;;;;;4909601;29;20048;-65
2023/05/25 08:51:20;;;;;;;18.50;9.73;;;;;;;;;;4909552;29;20052;-63
2023/05/25 08:55:03;;;;;;;19.38;10.00;;;;;;;;;;4912921;29;20111;-66
2023/05/25 08:58:46;;;;;;;26.23;11.98;;;;;;;;;;4898500;29;21609;-64
2023/05/25 09:02:06;;;;;;;16.02;10.25;;;;;;;;;;4909825;29;20130;-64
2023/05/25 09:05:48;;;;;;;18.27;10.00;;;;;;;;;;4909890;29;20556;-64
2023/05/25 09:09:28;;;;;;;19.77;10.43;;;;;;;;;;4911001;29;20081;-65
2023/05/25 09:13:08;;;;;;;18.02;9.45;;;;;;;;;;4908655;29;20059;-62
2023/05/25 09:16:48;;;;;;;18.95;9.98;;;;;;;;;;4911263;29;20102;-63
2023/05/25 09:20:30;;;;;;;18.42;9.27;;;;;;;;;;4905467;29;20070;-64
2023/05/25 09:24:11;;;;;;;15.82;9.63;;;;;;;;;;4907275;29;20052;-63
2023/05/25 09:27:52;;;;;;;17.38;8.52;;;;;;;;;;4907060;29;20052;-64
2023/05/25 09:31:32;;;;;;;15.60;8.27;;;;;;;;;;4907728;29;20096;-63
2023/05/25 09:35:12;;;;;;;18.23;8.65;;;;;;;;;;4905944;29;20072;-65
2023/05/25 09:38:53;;;;;;;12.63;7.80;;;;;;;;;;4907000;29;20078;-61
2023/05/25 09:42:33;;;;;;;21.02;8.35;;;;;;;;;;4901453;29;20048;-63
2023/05/25 09:46:13;;;;;;;14.45;7.70;;;;;;;;;;4905563;29;20413;-62
2023/05/25 09:49:54;;;;;;;15.73;8.00;;;;;;;;;;4897108;29;20103;-65
2023/05/25 09:53:37;;;;;;;14.63;8.25;;;;;;;;;;4905976;29;20106;-62
2023/05/25 09:57:17;;;;;;;14.30;7.47;;;;;;;;;;4901632;29;20412;-62
2023/05/25 10:00:18;;;;;;;13.70;7.65;;;;;;;;;;4903398;29;20055;-61
2023/05/25 10:02:47;;;;;;;17.52;7.50;;;;;;;;;;4905661;29;20048;-64
2023/05/25 10:05:15;;;;;;;12.82;8.05;;;;;;;;;;4904036;29;20048;-64
2023/05/25 10:07:44;;;;;;;16.25;7.97;;;;;;;;;;4906296;29;20064;-63
2023/05/25 10:10:14;;;;;;;14.10;7.25;;;;;;;;;;4906019;29;20734;-65
2023/05/25 10:12:40;;;;;;;17.83;7.53;;;;;;;;;;4903174;29;20059;-64
2023/05/25 10:15:09;;;;;;;13.80;6.72;;;;;;;;;;4903155;29;20469;-62
2023/05/25 10:17:54;;;;;;;15.85;7.03;;;;;;;;;;4902160;29;20432;-62
2023/05/25 10:20:22;;;;;;;12.93;6.78;;;;;;;;;;4904922;29;20052;-62
2023/05/25 10:23:07;;;;;;;11.25;6.13;;;;;;;;;;4905994;29;20449;-63
2023/05/25 10:25:46;;;;;;;16.05;6.20;;;;;;;;;;4907297;29;20055;-62
2023/05/25 10:28:27;;;;;;;11.57;5.43;;;;;;;;;;4907192;29;20516;-62
2023/05/25 10:30:58;;;;;;;14.20;5.55;;;;;;;;;;4907993;29;20052;-64
2023/05/25 10:33:26;;;;;;;9.68;5.55;;;;;;;;;;4906777;29;20380;-62
2023/05/25 10:35:53;;;;;;;14.25;5.20;;;;;;;;;;4906338;29;20142;-65
2023/05/25 10:38:22;;;;;;;12.43;5.60;;;;;;;;;;4907415;29;20089;-65
2023/05/25 10:40:50;;;;;;;12.23;5.22;;;;;;;;;;4904651;29;20078;-62
2023/05/25 10:43:18;;;;;;;15.40;5.40;;;;;;;;;;4903999;29;20061;-64
2023/05/25 10:45:46;;;;;;;18.73;5.85;;;;;;;;;;4905709;29;20041;-63
2023/05/25 10:48:14;;;;;;;10.80;5.32;;;;;;;;;;4904025;29;20056;-62
2023/05/25 10:50:40;;;;;;;12.10;5.40;;;;;;;;;;4900632;29;20087;-61
2023/05/25 10:53:10;;;;;;;14.50;5.60;;;;;;;;;;4902594;29;20052;-62
2023/05/25 10:55:52;;;;;;;10.00;5.55;;;;;;;;;;4900650;29;20127;-64
2023/05/25 10:58:22;;;;;;;10.15;5.78;;;;;;;;;;4902725;29;20059;-64
2023/05/25 11:01:05;;;;;;;11.18;5.47;;;;;;;;;;4902917;29;20111;-63
2023/05/25 11:03:46;;;;;;;10.57;5.50;;;;;;;;;;4903456;29;20107;-62
2023/05/25 11:06:15;;;;;;;12.77;5.13;;;;;;;;;;4909449;29;20127;-64
2023/05/25 11:08:54;;;;;;;13.25;6.30;;;;;;;;;;4903083;29;20051;-65
2023/05/25 11:11:21;;;;;;;11.30;4.65;;;;;;;;;;4900649;29;20059;-65
2023/05/25 11:13:54;;;;;;;14.57;5.28;;;;;;;;;;4901660;29;20056;-64
2023/05/25 11:16:33;;;;;;;10.50;6.20;;;;;;;;;;4906125;29;20139;-66
2023/05/25 11:19:02;;;;;;;12.85;4.80;;;;;;;;;;4900792;29;20456;-64
2023/05/25 11:21:29;;;;;;;10.93;6.22;;;;;;;;;;4899187;29;20589;-63
2023/05/25 11:24:11;;;;;;;7.15;4.70;;;;;;;;;;4904421;29;20068;-64
2023/05/25 11:26:55;;;;;;;10.98;4.68;;;;;;;;;;4898047;29;20054;-66
2023/05/25 11:29:21;;;;;;;10.38;4.65;;;;;;;;;;4915077;29;20053;-63
2023/05/25 11:31:54;;;;;;;10.70;5.10;;;;;;;;;;4908046;29;20055;-64
2023/05/25 11:34:27;;;;;;;13.70;4.90;;;;;;;;;;4904756;29;20048;-63
2023/05/25 11:37:36;;;;;;;15.70;5.35;;;;;;;;;;4903101;29;20404;-64
2023/05/25 11:41:17;;;;;;;8.40;3.63;;;;;;;;;;4904406;29;20067;-66
2023/05/25 11:44:32;;;;;;;8.23;3.75;;;;;;;;;;4896684;29;20238;-63
2023/05/25 11:47:08;;;;;;;8.65;3.88;;;;;;;;;;4908142;29;20055;-64
2023/05/25 11:49:40;;;;;;;9.73;3.63;;;;;;;;;;4909568;29;20397;-64
2023/05/25 11:52:07;;;;;;;11.38;4.28;;;;;;;;;;4911795;29;20119;-69
2023/05/25 11:54:35;;;;;;;11.02;4.63;;;;;;;;;;4902645;29;20055;-65
2023/05/25 11:57:03;;;;;;;9.40;3.65;;;;;;;;;;4902917;29;20700;-64
2023/05/25 11:59:29;;;;;;;10.90;4.07;;;;;;;;;;4906491;29;20079;-65
2023/05/25 12:02:02;;;;;;;8.45;3.65;;;;;;;;;;4893713;29;20070;-64
2023/05/25 12:04:31;;;;;;;6.95;3.35;;;;;;;;;;4896577;29;20060;-66
2023/05/25 12:07:05;;;;;;;8.70;3.30;;;;;;;;;;4908814;29;20543;-63
2023/05/25 12:09:31;;;;;;;8.00;3.40;;;;;;;;;;4912145;29;20095;-63
2023/05/25 12:11:59;;;;;;;8.15;3.55;;;;;;;;;;4910847;29;20048;-65
2023/05/25 12:14:27;;;;;;;7.35;3.70;;;;;;;;;;4909489;29;20880;-65
2023/05/25 12:16:53;;;;;;;10.50;3.72;;;;;;;;;;4906577;29;20047;-67
2023/05/25 12:19:20;;;;;;;12.77;4.32;;;;;;;;;;4906154;29;20510;-67
2023/05/25 12:21:50;;;;;;;7.47;4.03;;;;;;;;;;4900075;29;20056;-66
2023/05/25 12:24:17;;;;;;;9.93;4.72;;;;;;;;;;4909444;29;20050;-65
2023/05/25 12:26:56;;;;;;;13.45;4.93;;;;;;;;;;4911693;29;20317;-67
2023/05/25 12:29:25;;;;;;;7.05;4.00;;;;;;;;;;4906139;29;20071;-67
2023/05/25 12:31:51;;;;;;;9.75;4.50;;;;;;;;;;4906025;29;20060;-66
2023/05/25 12:34:18;;;;;;;6.70;4.20;;;;;;;;;;4893242;29;20134;-66
2023/05/25 12:36:53;;;;;;;8.57;4.28;;;;;;;;;;4909129;29;20056;-67
2023/05/25 12:39:34;;;;;;;8.02;4.43;;;;;;;;;;4904596;29;20524;-65
2023/05/25 12:42:01;;;;;;;12.68;5.25;;;;;;;;;;4903494;29;20055;-66
2023/05/25 12:44:37;;;;;;;10.75;4.93;;;;;;;;;;4907463;29;20682;-68
2023/05/25 12:47:22;;;;;;;10.93;4.97;;;;;;;;;;4905038;29;20636;-67
2023/05/25 12:49:52;;;;;;;9.27;5.28;;;;;;;;;;4909289;29;20111;-65
2023/05/25 12:52:39;;;;;;;10.68;5.10;;;;;;;;;;4911499;29;20352;-70
2023/05/25 12:55:34;;;;;;;11.48;5.22;;;;;;;;;;4893017;29;20067;-65
2023/05/25 12:58:05;;;;;;;24.45;5.85;;;;;;;;;;4908266;29;20075;-65
2023/05/25 13:00:38;;;;;;;16.08;5.22;;;;;;;;;;4908808;29;20052;-64
2023/05/25 13:03:08;;;;;;;;;;;;;;;;;;4907290;29;20519;-65
2023/05/25 13:05:35;;;;;;;9.75;4.93;;;;;;;;;;4908475;29;19923;-67
2023/05/25 13:08:04;;;;;;;14.57;5.10;;;;;;;;;;4908309;29;20123;-66
2023/05/25 13:10:32;;;;;;;13.15;5.00;;;;;;;;;;4910973;29;20060;-64
2023/05/25 13:13:00;;;;;;;11.55;5.88;;;;;;;;;;4904367;29;20493;-66
2023/05/25 13:15:27;;;;;;;16.05;5.32;;;;;;;;;;4905836;29;20048;-67
2023/05/25 13:17:55;;;;;;;12.73;5.85;;;;;;;;;;4905616;29;20045;-68
2023/05/25 13:20:26;;;;;;;15.85;5.68;;;;;;;;;;4907797;29;20055;-67
2023/05/25 13:22:56;;;;;;;17.13;6.30;;;;;;;;;;4908764;29;20053;-64
2023/05/25 13:25:25;;;;;;;15.95;6.28;;;;;;;;;;4889387;29;20067;-66
2023/05/25 13:27:53;;;;;;;14.48;5.90;;;;;;;;;;4907208;29;20135;-70
2023/05/25 13:30:20;;;;;;;16.23;5.70;;;;;;;;;;4907469;29;20936;-71
2023/05/25 13:32:47;;;;;;;19.25;6.00;;;;;;;;;;4904679;29;20067;-68
2023/05/25 13:35:18;;;;;;;16.00;5.88;;;;;;;;;;4904170;29;20043;-68
2023/05/25 13:37:48;;;;;;;10.95;5.13;;;;;;;;;;4906772;29;20071;-69
2023/05/25 13:40:14;;;;;;;15.77;5.85;;;;;;;;;;4907182;29;20058;-66
2023/05/25 13:42:40;;;;;;;19.98;6.18;;;;;;;;;;4905077;29;20055;-67
2023/05/25 13:45:06;;;;;;;14.75;5.63;;;;;;;;;;4907328;29;20043;-66
2023/05/25 13:47:32;;;;;;;12.30;5.38;;;;;;;;;;4902867;29;20059;-68
2023/05/25 13:49:59;;;;;;;12.18;5.53;;;;;;;;;;4905728;29;20044;-67
2023/05/25 13:52:27;;;;;;;14.30;5.35;;;;;;;;;;4907041;29;20139;-65
2023/05/25 13:54:53;;;;;;;8.45;4.45;;;;;;;;;;4904928;29;20196;-70
2023/05/25 13:57:21;;;;;;;13.70;4.90;;;;;;;;;;4910496;29;20052;-69
2023/05/25 13:59:46;;;;;;;11.55;4.47;;;;;;;;;;4904432;29;20060;-66
2023/05/25 14:02:14;;;;;;;10.32;4.85;;;;;;;;;;4902377;29;20047;-67
2023/05/25 14:04:40;;;;;;;10.77;5.18;;;;;;;;;;4905460;29;20052;-68
2023/05/25 14:07:06;;;;;;;9.68;4.93;;;;;;;;;;4910927;29;20067;-69
2023/05/25 14:09:32;;;;;;;10.18;4.88;;;;;;;;;;4906140;29;20037;-66
2023/05/25 14:11:58;;;;;;;12.35;5.60;;;;;;;;;;4904495;29;20059;-71
2023/05/25 14:14:24;;;;;;;7.82;4.32;;;;;;;;;;4902964;29;20041;-69
2023/05/25 14:16:50;;;;;;;11.63;4.97;;;;;;;;;;4911045;29;20247;-71
2023/05/25 14:19:16;;;;;;;13.13;5.80;;;;;;;;;;4911206;29;20063;-68
2023/05/25 14:21:46;;;;;;;9.02;4.63;;;;;;;;;;4909250;29;20064;-64
2023/05/25 14:24:11;;;;;;;8.63;4.70;;;;;;;;;;4905673;29;20044;-66
2023/05/25 14:26:37;;;;;;;9.30;4.72;;;;;;;;;;4908513;29;20044;-63
2023/05/25 14:29:05;;;;;;;13.82;5.28;;;;;;;;;;4902555;29;20060;-64
2023/05/25 14:31:34;;;;;;;12.48;4.75;;;;;;;;;;4908451;29;20060;-69
2023/05/25 14:34:00;;;;;;;10.30;5.00;;;;;;;;;;4905993;29;20044;-67
2023/05/25 14:36:27;;;;;;;10.10;4.60;;;;;;;;;;4909776;29;20059;-67
2023/05/25 14:38:53;;;;;;;9.90;5.32;;;;;;;;;;4903498;29;20385;-67
2023/05/25 14:41:21;;;;;;;13.95;5.65;;;;;;;;;;4907046;29;20062;-67
2023/05/25 14:43:47;;;;;;;11.57;5.35;;;;;;;;;;4902575;29;20052;-63
2023/05/25 14:46:14;;;;;;;13.50;4.65;;;;;;;;;;4907039;29;20052;-67
2023/05/25 14:49:23;;;;;;;9.20;4.85;;;;;;;;;;4902958;29;20075;-67
2023/05/25 14:53:00;;;;;;;16.23;5.13;;;;;;;;;;4900850;29;20905;-64
2023/05/25 14:56:41;;;;;;;11.63;4.72;;;;;;;;;;4908719;29;20040;-66
2023/05/25 15:00:21;;;;;;;12.32;4.93;;;;;;;;;;4899250;29;20056;-64
2023/05/25 15:04:01;;;;;;;13.23;5.47;;;;;;;;;;4892715;29;20056;-64
2023/05/25 15:07:44;;;;;;;10.23;5.18;;;;;;;;;;4892832;29;20059;-65
2023/05/25 15:11:25;;;;;;;9.85;4.93;;;;;;;;;;4890004;29;20055;-67
2023/05/25 15:15:08;;;;;;;13.98;5.63;;;;;;;;;;4882697;29;20052;-62
2023/05/25 15:18:46;;;;;;;12.27;5.10;;;;;;;;;;4884680;29;20094;-67
2023/05/25 15:22:28;;;;;;;18.65;6.22;;;;;;;;;;4890451;29;20320;-70
2023/05/25 15:26:10;;;;;;;13.20;5.03;;;;;;;;;;4887692;29;20060;-65
2023/05/25 15:29:49;;;;;;;9.98;5.63;;;;;;;;;;4895934;29;20051;-63
2023/05/25 15:33:29;;;;;;;12.93;5.63;;;;;;;;;;4906436;29;20083;-64
2023/05/25 15:37:09;;;;;;;11.35;5.63;;;;;;;;;;4892426;29;20051;-65
2023/05/25 15:40:50;;;;;;;10.48;5.18;;;;;;;;;;4894500;29;20449;-64
2023/05/25 15:44:30;;;;;;;14.65;5.22;;;;;;;;;;4896423;29;20064;-66
2023/05/25 15:48:11;;;;;;;14.40;5.70;;;;;;;;;;4898114;29;20048;-64
2023/05/25 15:51:52;;;;;;;9.48;4.80;;;;;;;;;;4895282;29;20056;-66
2023/05/25 15:55:32;;;;;;;12.48;6.88;;;;;;;;;;4894522;29;20385;-63
2023/05/25 15:59:13;;;;;;;12.45;4.82;;;;;;;;;;4891872;29;20634;-62
2023/05/25 16:02:53;;;;;;;11.32;5.20;;;;;;;;;;4894830;29;20055;-64
2023/05/25 16:06:33;;;;;;;12.23;5.55;;;;;;;;;;4894114;29;20560;-64
2023/05/25 16:10:14;;;;;;;11.35;4.82;;;;;;;;;;4893840;29;20059;-62
2023/05/25 16:13:54;;;;;;;13.60;5.40;;;;;;;;;;4896747;29;20526;-64
2023/05/25 16:17:36;;;;;;;10.20;4.93;;;;;;;;;;4896023;29;20052;-64
2023/05/25 16:20:36;;;;;;;15.85;5.80;;;;;;;;;;4899541;29;20187;-62
2023/05/25 16:23:42;;;;;;;13.25;5.63;;;;;;;;;;4895571;29;20064;-63
2023/05/25 16:27:23;;;;;;;12.00;5.20;;;;;;;;;;4898401;29;20436;-64
2023/05/25 16:31:05;;;;;;;12.68;5.68;;;;;;;;;;4896222;29;20060;-67
2023/05/25 16:34:46;;;;;;;13.60;5.22;;;;;;;;;;4889704;29;20056;-65
2023/05/25 16:38:26;;;;;;;10.63;4.85;;;;;;;;;;4893203;29;20467;-64
2023/05/25 16:42:06;;;;;;;10.15;5.10;;;;;;;;;;4892134;29;20147;-66
2023/05/25 16:45:47;;;;;;;9.68;5.18;;;;;;;;;;4902680;29;20409;-64
2023/05/25 16:49:27;;;;;;;9.00;4.65;;;;;;;;;;4907502;29;20058;-63
2023/05/25 16:53:07;;;;;;;13.18;5.20;;;;;;;;;;4899935;29;20060;-66
2023/05/25 16:56:48;;;;;;;13.55;5.43;;;;;;;;;;4894022;29;20080;-66
2023/05/25 17:00:28;;;;;;;11.55;4.70;;;;;;;;;;4891796;29;20063;-65
2023/05/25 17:04:09;;;;;;;13.85;5.97;;;;;;;;;;4892878;29;20059;-61
2023/05/25 17:07:49;;;;;;;13.88;4.75;;;;;;;;;;4891593;29;21622;-66
2023/05/25 17:11:29;;;;;;;13.05;5.47;;;;;;;;;;4897657;29;20715;-66
2023/05/25 17:15:12;;;;;;;8.43;5.10;;;;;;;;;;4888274;29;20974;-65
2023/05/25 17:18:50;;;;;;;13.18;5.65;;;;;;;;;;4906105;29;20056;-66
2023/05/25 17:22:31;;;;;;;10.25;5.10;;;;;;;;;;4899532;29;20088;-68
2023/05/25 17:26:12;;;;;;;12.38;4.75;;;;;;;;;;4895249;29;20058;-67
2023/05/25 17:29:53;;;;;;;9.88;4.90;;;;;;;;;;4894681;29;20052;-65
2023/05/25 17:33:33;;;;;;;11.30;4.43;;;;;;;;;;4896807;29;20179;-69
2023/05/25 17:37:15;;;;;;;10.43;4.60;;;;;;;;;;4892348;29;20160;-71
2023/05/25 17:40:55;;;;;;;10.40;4.70;;;;;;;;;;4893789;29;20100;-69
2023/05/25 17:44:38;;;;;;;13.80;4.85;;;;;;;;;;4896212;29;20067;-70
2023/05/25 17:48:16;;;;;;;6.05;3.92;;;;;;;;;;4891385;29;20040;-67
2023/05/25 17:51:57;;;;;;;12.40;4.28;;;;;;;;;;4892702;29;20130;-69
2023/05/25 17:55:36;;;;;;;10.75;4.57;;;;;;;;;;4889733;29;20529;-67
2023/05/25 17:59:19;;;;;;;13.75;4.55;;;;;;;;;;4898170;29;20091;-68
2023/05/25 18:03:00;;;;;;;13.00;4.20;;;;;;;;;;4892371;29;20052;-67
2023/05/25 18:06:40;;;;;;;6.43;4.10;;;;;;;;;;4892203;29;20416;-66
2023/05/25 18:10:21;;;;;;;9.10;4.72;;;;;;;;;;4890985;29;20134;-65
2023/05/25 18:14:04;;;;;;;15.50;5.00;;;;;;;;;;4904003;29;20571;-66
2023/05/25 18:17:46;;;;;;;7.38;4.30;;;;;;;;;;4904094;29;20212;-67
2023/05/25 18:21:26;;;;;;;8.98;4.05;;;;;;;;;;4896208;29;20056;-65
2023/05/25 18:25:12;;;;;;;11.75;4.40;;;;;;;;;;4889660;29;20972;-66
2023/05/25 18:28:53;;;;;;;9.57;4.40;;;;;;;;;;4893068;29;20072;-68
2023/05/25 18:32:33;;;;;;;10.20;4.43;;;;;;;;;;4886699;29;20052;-68
2023/05/25 18:36:14;;;;;;;9.55;4.55;;;;;;;;;;4892893;29;20210;-67
2023/05/25 18:39:59;;;;;;;10.50;4.50;;;;;;;;;;4887733;29;20059;-72
2023/05/25 18:43:42;;;;;;;8.35;4.40;;;;;;;;;;4889326;29;20458;-68
2023/05/25 18:47:26;;;;;;;10.48;4.65;;;;;;;;;;4897614;29;20055;-71
2023/05/25 18:51:06;;;;;;;7.03;4.25;;;;;;;;;;4901862;29;20039;-68
2023/05/25 18:54:48;;;;;;;11.85;4.68;;;;;;;;;;4906587;29;20085;-69
2023/05/25 18:58:28;;;;;;;7.32;5.00;;;;;;;;;;4903476;29;20131;-66
2023/05/25 19:02:09;;;;;;;11.98;5.25;;;;;;;;;;4907174;29;20054;-67
2023/05/25 19:05:49;;;;;;;11.75;5.03;;;;;;;;;;4900789;29;20549;-67
2023/05/25 19:08:54;;;;;;;11.88;4.97;;;;;;;;;;4900291;29;20203;-69
2023/05/25 19:11:22;;;;;;;13.10;4.80;;;;;;;;;;4907459;29;20066;-69
2023/05/25 19:13:49;;;;;;;16.40;5.57;;;;;;;;;;4907331;29;20454;-66
2023/05/25 19:16:16;;;;;;;17.95;5.13;;;;;;;;;;4905454;29;20056;-68
2023/05/25 19:18:48;;;;;;;11.10;4.60;;;;;;;;;;4899409;29;20064;-68
2023/05/25 19:21:14;;;;;;;8.65;5.00;;;;;;;;;;4900800;29;20048;-68
2023/05/25 19:23:40;;;;;;;10.90;5.63;;;;;;;;;;4897880;29;20463;-68